sensor_id;sensor_type;location;lat;lon;timestamp;P1;durP1;ratioP1;P2;durP2;ratioP2
19877;SDS011;10101;52.204;9.910;2023-12-20T00:02:17;4.77;;;3.30;;
19877;SDS011;10101;52.204;9.910;2023-12-20T00:04:44;4.03;;;3.43;;
19877;SDS011;10101;52.204;9.910;2023-12-20T00:07:11;3.77;;;3.20;;
19877;SDS011;10101;52.204;9.910;2023-12-20T00:09:38;3.37;;;3.07;;
19877;SDS011;10101;52.204;9.910;2023-12-20T00:12:05;4.70;;;3.17;;
19877;SDS011;10101;52.204;9.910;2023-12-20T00:14:33;3.00;;;2.70;;
19877;SDS011;10101;52.204;9.910;2023-12-20T00:17:00;3.80;;;3.00;;
19877;SDS011;10101;52.204;9.910;2023-12-20T00:19:26;3.20;;;2.90;;
19877;SDS011;10101;52.204;9.910;2023-12-20T00:21:53;3.73;;;3.23;;
19877;SDS011;10101;52.204;9.910;2023-12-20T00:24:20;5.00;;;2.60;;
19877;SDS011;10101;52.204;9.910;2023-12-20T00:26:47;2.70;;;2.40;;
19877;SDS011;10101;52.204;9.910;2023-12-20T00:29:13;2.87;;;2.57;;
19877;SDS011;10101;52.204;9.910;2023-12-20T00:31:41;2.90;;;2.60;;
19877;SDS011;10101;52.204;9.910;2023-12-20T00:34:08;3.13;;;2.10;;
19877;SDS011;10101;52.204;9.910;2023-12-20T00:36:35;4.07;;;2.87;;
19877;SDS011;10101;52.204;9.910;2023-12-20T00:39:01;3.30;;;2.90;;
19877;SDS011;10101;52.204;9.910;2023-12-20T00:41:28;4.83;;;3.70;;
19877;SDS011;10101;52.204;9.910;2023-12-20T00:43:55;3.47;;;2.93;;
19877;SDS011;10101;52.204;9.910;2023-12-20T00:46:22;4.63;;;3.27;;
19877;SDS011;10101;52.204;9.910;2023-12-20T00:48:50;6.07;;;3.20;;
19877;SDS011;10101;52.204;9.910;2023-12-20T00:51:16;8.67;;;3.57;;
19877;SDS011;10101;52.204;9.910;2023-12-20T00:53:43;7.37;;;3.67;;
19877;SDS011;10101;52.204;9.910;2023-12-20T00:56:11;4.60;;;3.10;;
19877;SDS011;10101;52.204;9.910;2023-12-20T00:58:37;4.03;;;2.97;;
19877;SDS011;10101;52.204;9.910;2023-12-20T01:01:03;4.63;;;2.53;;
19877;SDS011;10101;52.204;9.910;2023-12-20T01:03:30;5.30;;;2.80;;
19877;SDS011;10101;52.204;9.910;2023-12-20T01:05:58;10.40;;;3.00;;
19877;SDS011;10101;52.204;9.910;2023-12-20T01:08:25;5.63;;;3.07;;
19877;SDS011;10101;52.204;9.910;2023-12-20T01:10:51;5.87;;;2.47;;
19877;SDS011;10101;52.204;9.910;2023-12-20T01:13:18;6.87;;;2.67;;
19877;SDS011;10101;52.204;9.910;2023-12-20T01:15:45;6.03;;;2.80;;
19877;SDS011;10101;52.204;9.910;2023-12-20T01:18:12;6.80;;;2.80;;
19877;SDS011;10101;52.204;9.910;2023-12-20T01:20:39;7.37;;;2.77;;
19877;SDS011;10101;52.204;9.910;2023-12-20T01:23:07;9.80;;;3.23;;
19877;SDS011;10101;52.204;9.910;2023-12-20T01:25:34;6.37;;;3.50;;
19877;SDS011;10101;52.204;9.910;2023-12-20T01:28:00;9.43;;;2.63;;
19877;SDS011;10101;52.204;9.910;2023-12-20T01:30:28;7.87;;;2.27;;
19877;SDS011;10101;52.204;9.910;2023-12-20T01:32:54;7.23;;;1.70;;
19877;SDS011;10101;52.204;9.910;2023-12-20T01:35:21;6.93;;;1.40;;
19877;SDS011;10101;52.204;9.910;2023-12-20T01:37:48;7.47;;;1.80;;
19877;SDS011;10101;52.204;9.910;2023-12-20T01:40:16;5.97;;;1.40;;
19877;SDS011;10101;52.204;9.910;2023-12-20T01:42:43;8.73;;;1.23;;
19877;SDS011;10101;52.204;9.910;2023-12-20T01:45:09;2.27;;;0.90;;
19877;SDS011;10101;52.204;9.910;2023-12-20T01:47:39;4.73;;;1.10;;
19877;SDS011;10101;52.204;9.910;2023-12-20T01:50:06;4.80;;;1.00;;
19877;SDS011;10101;52.204;9.910;2023-12-20T01:52:34;5.00;;;1.10;;
19877;SDS011;10101;52.204;9.910;2023-12-20T01:55:01;6.07;;;1.00;;
19877;SDS011;10101;52.204;9.910;2023-12-20T01:57:32;7.57;;;1.13;;
19877;SDS011;10101;52.204;9.910;2023-12-20T01:59:59;5.83;;;1.27;;
19877;SDS011;10101;52.204;9.910;2023-12-20T02:02:28;6.90;;;1.43;;
19877;SDS011;10101;52.204;9.910;2023-12-20T02:04:55;6.87;;;0.97;;
19877;SDS011;10101;52.204;9.910;2023-12-20T02:07:22;10.33;;;1.30;;
19877;SDS011;10101;52.204;9.910;2023-12-20T02:09:49;4.97;;;1.00;;
19877;SDS011;10101;52.204;9.910;2023-12-20T02:12:16;7.03;;;1.03;;
19877;SDS011;10101;52.204;9.910;2023-12-20T02:14:44;7.70;;;1.87;;
19877;SDS011;10101;52.204;9.910;2023-12-20T02:17:11;5.70;;;1.30;;
19877;SDS011;10101;52.204;9.910;2023-12-20T02:19:38;5.53;;;1.00;;
19877;SDS011;10101;52.204;9.910;2023-12-20T02:22:06;6.30;;;1.30;;
19877;SDS011;10101;52.204;9.910;2023-12-20T02:24:34;4.30;;;1.20;;
19877;SDS011;10101;52.204;9.910;2023-12-20T02:27:01;6.40;;;1.20;;
19877;SDS011;10101;52.204;9.910;2023-12-20T02:29:28;4.53;;;0.90;;
19877;SDS011;10101;52.204;9.910;2023-12-20T02:31:54;6.37;;;1.10;;
19877;SDS011;10101;52.204;9.910;2023-12-20T02:34:21;4.97;;;1.00;;
19877;SDS011;10101;52.204;9.910;2023-12-20T02:36:48;3.90;;;1.07;;
19877;SDS011;10101;52.204;9.910;2023-12-20T02:39:16;2.83;;;1.10;;
19877;SDS011;10101;52.204;9.910;2023-12-20T02:41:43;3.40;;;1.20;;
19877;SDS011;10101;52.204;9.910;2023-12-20T02:44:10;5.00;;;1.10;;
19877;SDS011;10101;52.204;9.910;2023-12-20T02:46:36;2.03;;;1.20;;
19877;SDS011;10101;52.204;9.910;2023-12-20T02:49:03;5.47;;;1.37;;
19877;SDS011;10101;52.204;9.910;2023-12-20T02:51:30;4.47;;;1.20;;
19877;SDS011;10101;52.204;9.910;2023-12-20T02:53:56;2.73;;;0.90;;
19877;SDS011;10101;52.204;9.910;2023-12-20T02:56:25;5.93;;;1.63;;
19877;SDS011;10101;52.204;9.910;2023-12-20T02:58:51;7.07;;;1.20;;
19877;SDS011;10101;52.204;9.910;2023-12-20T03:01:18;3.03;;;1.07;;
19877;SDS011;10101;52.204;9.910;2023-12-20T03:03:45;6.30;;;1.30;;
19877;SDS011;10101;52.204;9.910;2023-12-20T03:06:11;5.60;;;1.07;;
19877;SDS011;10101;52.204;9.910;2023-12-20T03:08:43;8.27;;;1.20;;
19877;SDS011;10101;52.204;9.910;2023-12-20T03:11:09;5.43;;;0.90;;
19877;SDS011;10101;52.204;9.910;2023-12-20T03:13:37;8.70;;;1.07;;
19877;SDS011;10101;52.204;9.910;2023-12-20T03:16:07;5.77;;;0.90;;
19877;SDS011;10101;52.204;9.910;2023-12-20T03:18:35;4.40;;;1.00;;
19877;SDS011;10101;52.204;9.910;2023-12-20T03:21:02;5.13;;;1.10;;
19877;SDS011;10101;52.204;9.910;2023-12-20T03:23:29;2.37;;;0.80;;
19877;SDS011;10101;52.204;9.910;2023-12-20T03:25:57;2.67;;;0.90;;
19877;SDS011;10101;52.204;9.910;2023-12-20T03:28:24;2.33;;;0.80;;
19877;SDS011;10101;52.204;9.910;2023-12-20T03:30:53;8.23;;;1.10;;
19877;SDS011;10101;52.204;9.910;2023-12-20T03:33:19;2.67;;;0.70;;
19877;SDS011;10101;52.204;9.910;2023-12-20T03:35:46;1.77;;;0.73;;
19877;SDS011;10101;52.204;9.910;2023-12-20T03:38:13;7.73;;;1.00;;
19877;SDS011;10101;52.204;9.910;2023-12-20T03:40:39;4.33;;;1.00;;
19877;SDS011;10101;52.204;9.910;2023-12-20T03:43:06;4.83;;;1.00;;
19877;SDS011;10101;52.204;9.910;2023-12-20T03:45:33;5.13;;;1.20;;
19877;SDS011;10101;52.204;9.910;2023-12-20T03:48:01;7.13;;;1.20;;
19877;SDS011;10101;52.204;9.910;2023-12-20T03:50:28;4.70;;;1.30;;
19877;SDS011;10101;52.204;9.910;2023-12-20T03:52:55;4.73;;;1.20;;
19877;SDS011;10101;52.204;9.910;2023-12-20T03:55:22;2.63;;;0.90;;
19877;SDS011;10101;52.204;9.910;2023-12-20T03:57:48;4.23;;;1.00;;
19877;SDS011;10101;52.204;9.910;2023-12-20T04:00:15;5.50;;;1.30;;
19877;SDS011;10101;52.204;9.910;2023-12-20T04:02:42;8.97;;;1.47;;
19877;SDS011;10101;52.204;9.910;2023-12-20T04:05:10;4.97;;;1.03;;
19877;SDS011;10101;52.204;9.910;2023-12-20T04:07:37;5.83;;;1.17;;
19877;SDS011;10101;52.204;9.910;2023-12-20T04:10:04;7.03;;;1.20;;
19877;SDS011;10101;52.204;9.910;2023-12-20T04:12:32;4.20;;;1.00;;
19877;SDS011;10101;52.204;9.910;2023-12-20T04:14:59;3.90;;;1.20;;
19877;SDS011;10101;52.204;9.910;2023-12-20T04:17:25;4.50;;;1.00;;
19877;SDS011;10101;52.204;9.910;2023-12-20T04:19:52;6.70;;;1.00;;
19877;SDS011;10101;52.204;9.910;2023-12-20T04:22:20;7.20;;;1.27;;
19877;SDS011;10101;52.204;9.910;2023-12-20T04:24:47;4.83;;;0.80;;
19877;SDS011;10101;52.204;9.910;2023-12-20T04:27:14;3.33;;;1.00;;
19877;SDS011;10101;52.204;9.910;2023-12-20T04:29:40;2.83;;;1.17;;
19877;SDS011;10101;52.204;9.910;2023-12-20T04:32:07;5.73;;;1.57;;
19877;SDS011;10101;52.204;9.910;2023-12-20T04:34:34;10.57;;;1.30;;
19877;SDS011;10101;52.204;9.910;2023-12-20T04:37:02;6.37;;;1.47;;
19877;SDS011;10101;52.204;9.910;2023-12-20T04:39:30;7.57;;;1.63;;
19877;SDS011;10101;52.204;9.910;2023-12-20T04:41:56;2.80;;;1.07;;
19877;SDS011;10101;52.204;9.910;2023-12-20T04:44:23;4.93;;;1.50;;
19877;SDS011;10101;52.204;9.910;2023-12-20T04:46:50;4.83;;;1.07;;
19877;SDS011;10101;52.204;9.910;2023-12-20T04:49:17;5.10;;;1.00;;
19877;SDS011;10101;52.204;9.910;2023-12-20T04:51:43;5.67;;;1.20;;
19877;SDS011;10101;52.204;9.910;2023-12-20T04:54:10;7.30;;;1.23;;
19877;SDS011;10101;52.204;9.910;2023-12-20T04:56:40;1.97;;;1.17;;
19877;SDS011;10101;52.204;9.910;2023-12-20T04:59:07;4.23;;;1.00;;
19877;SDS011;10101;52.204;9.910;2023-12-20T05:01:33;4.63;;;1.27;;
19877;SDS011;10101;52.204;9.910;2023-12-20T05:04:00;4.40;;;1.43;;
19877;SDS011;10101;52.204;9.910;2023-12-20T05:06:27;3.27;;;1.10;;
19877;SDS011;10101;52.204;9.910;2023-12-20T05:08:53;6.50;;;1.20;;
19877;SDS011;10101;52.204;9.910;2023-12-20T05:11:20;4.57;;;1.43;;
19877;SDS011;10101;52.204;9.910;2023-12-20T05:13:48;4.30;;;1.50;;
19877;SDS011;10101;52.204;9.910;2023-12-20T05:16:15;5.47;;;1.40;;
19877;SDS011;10101;52.204;9.910;2023-12-20T05:18:42;10.87;;;1.40;;
19877;SDS011;10101;52.204;9.910;2023-12-20T05:21:09;6.10;;;1.50;;
19877;SDS011;10101;52.204;9.910;2023-12-20T05:23:36;5.53;;;1.37;;
19877;SDS011;10101;52.204;9.910;2023-12-20T05:26:03;7.13;;;1.57;;
19877;SDS011;10101;52.204;9.910;2023-12-20T05:28:29;10.40;;;2.00;;
19877;SDS011;10101;52.204;9.910;2023-12-20T05:30:57;4.93;;;1.20;;
19877;SDS011;10101;52.204;9.910;2023-12-20T05:33:24;5.17;;;1.53;;
19877;SDS011;10101;52.204;9.910;2023-12-20T05:35:51;9.67;;;2.00;;
19877;SDS011;10101;52.204;9.910;2023-12-20T05:38:18;8.70;;;2.00;;
19877;SDS011;10101;52.204;9.910;2023-12-20T05:40:44;9.93;;;1.77;;
19877;SDS011;10101;52.204;9.910;2023-12-20T05:43:11;6.63;;;1.17;;
19877;SDS011;10101;52.204;9.910;2023-12-20T05:45:38;6.73;;;2.33;;
19877;SDS011;10101;52.204;9.910;2023-12-20T05:48:06;7.17;;;1.30;;
19877;SDS011;10101;52.204;9.910;2023-12-20T05:50:33;7.47;;;1.77;;
19877;SDS011;10101;52.204;9.910;2023-12-20T05:53:00;6.83;;;1.97;;
19877;SDS011;10101;52.204;9.910;2023-12-20T05:55:27;6.40;;;1.70;;
19877;SDS011;10101;52.204;9.910;2023-12-20T05:57:54;5.87;;;1.60;;
19877;SDS011;10101;52.204;9.910;2023-12-20T06:00:20;9.20;;;2.27;;
19877;SDS011;10101;52.204;9.910;2023-12-20T06:02:47;11.23;;;1.90;;
19877;SDS011;10101;52.204;9.910;2023-12-20T06:05:15;5.67;;;2.13;;
19877;SDS011;10101;52.204;9.910;2023-12-20T06:07:42;4.63;;;1.43;;
19877;SDS011;10101;52.204;9.910;2023-12-20T06:10:10;8.57;;;1.77;;
19877;SDS011;10101;52.204;9.910;2023-12-20T06:12:36;5.37;;;1.70;;
19877;SDS011;10101;52.204;9.910;2023-12-20T06:15:03;9.07;;;2.40;;
19877;SDS011;10101;52.204;9.910;2023-12-20T06:17:31;8.57;;;2.27;;
19877;SDS011;10101;52.204;9.910;2023-12-20T06:19:57;8.40;;;1.53;;
19877;SDS011;10101;52.204;9.910;2023-12-20T06:22:26;7.60;;;1.97;;
19877;SDS011;10101;52.204;9.910;2023-12-20T06:24:52;3.40;;;1.60;;
19877;SDS011;10101;52.204;9.910;2023-12-20T06:27:19;4.70;;;1.60;;
19877;SDS011;10101;52.204;9.910;2023-12-20T06:29:46;5.93;;;2.07;;
19877;SDS011;10101;52.204;9.910;2023-12-20T06:32:13;8.87;;;2.73;;
19877;SDS011;10101;52.204;9.910;2023-12-20T06:34:39;11.63;;;3.17;;
19877;SDS011;10101;52.204;9.910;2023-12-20T06:37:06;14.67;;;2.73;;
19877;SDS011;10101;52.204;9.910;2023-12-20T06:39:34;7.53;;;2.40;;
19877;SDS011;10101;52.204;9.910;2023-12-20T06:42:02;6.53;;;1.67;;
19877;SDS011;10101;52.204;9.910;2023-12-20T06:44:29;9.77;;;2.40;;
19877;SDS011;10101;52.204;9.910;2023-12-20T06:46:56;4.03;;;1.60;;
19877;SDS011;10101;52.204;9.910;2023-12-20T06:49:23;5.30;;;1.70;;
19877;SDS011;10101;52.204;9.910;2023-12-20T06:51:50;5.97;;;1.43;;
19877;SDS011;10101;52.204;9.910;2023-12-20T06:54:16;5.73;;;1.67;;
19877;SDS011;10101;52.204;9.910;2023-12-20T06:56:44;13.93;;;2.47;;
19877;SDS011;10101;52.204;9.910;2023-12-20T06:59:11;8.00;;;2.37;;
19877;SDS011;10101;52.204;9.910;2023-12-20T07:01:38;9.93;;;1.57;;
19877;SDS011;10101;52.204;9.910;2023-12-20T07:04:04;10.47;;;2.70;;
19877;SDS011;10101;52.204;9.910;2023-12-20T07:06:31;6.33;;;1.57;;
19877;SDS011;10101;52.204;9.910;2023-12-20T07:08:58;4.13;;;1.70;;
19877;SDS011;10101;52.204;9.910;2023-12-20T07:11:24;7.40;;;1.60;;
19877;SDS011;10101;52.204;9.910;2023-12-20T07:13:53;4.13;;;1.47;;
19877;SDS011;10101;52.204;9.910;2023-12-20T07:16:19;4.50;;;1.67;;
19877;SDS011;10101;52.204;9.910;2023-12-20T07:18:47;6.40;;;2.00;;
19877;SDS011;10101;52.204;9.910;2023-12-20T07:21:14;8.90;;;2.00;;
19877;SDS011;10101;52.204;9.910;2023-12-20T07:23:41;10.53;;;1.80;;
19877;SDS011;10101;52.204;9.910;2023-12-20T07:26:07;9.27;;;2.33;;
19877;SDS011;10101;52.204;9.910;2023-12-20T07:28:34;8.70;;;1.83;;
19877;SDS011;10101;52.204;9.910;2023-12-20T07:31:02;7.00;;;2.17;;
19877;SDS011;10101;52.204;9.910;2023-12-20T07:33:29;6.43;;;1.93;;
19877;SDS011;10101;52.204;9.910;2023-12-20T07:35:56;10.80;;;1.73;;
19877;SDS011;10101;52.204;9.910;2023-12-20T07:38:23;7.57;;;1.83;;
19877;SDS011;10101;52.204;9.910;2023-12-20T07:40:50;5.77;;;1.63;;
19877;SDS011;10101;52.204;9.910;2023-12-20T07:43:16;12.87;;;2.47;;
19877;SDS011;10101;52.204;9.910;2023-12-20T07:45:43;8.47;;;2.17;;
19877;SDS011;10101;52.204;9.910;2023-12-20T07:48:11;9.10;;;2.40;;
19877;SDS011;10101;52.204;9.910;2023-12-20T07:50:38;11.43;;;2.47;;
19877;SDS011;10101;52.204;9.910;2023-12-20T07:53:04;8.53;;;1.90;;
19877;SDS011;10101;52.204;9.910;2023-12-20T07:55:31;11.13;;;2.17;;
19877;SDS011;10101;52.204;9.910;2023-12-20T07:57:58;15.03;;;2.43;;
19877;SDS011;10101;52.204;9.910;2023-12-20T08:00:25;6.87;;;1.87;;
19877;SDS011;10101;52.204;9.910;2023-12-20T08:02:52;8.90;;;2.30;;
19877;SDS011;10101;52.204;9.910;2023-12-20T08:05:20;6.40;;;1.87;;
19877;SDS011;10101;52.204;9.910;2023-12-20T08:07:46;9.30;;;1.97;;
19877;SDS011;10101;52.204;9.910;2023-12-20T08:10:13;7.37;;;1.90;;
19877;SDS011;10101;52.204;9.910;2023-12-20T08:12:40;10.93;;;2.30;;
19877;SDS011;10101;52.204;9.910;2023-12-20T08:15:07;11.10;;;2.53;;
19877;SDS011;10101;52.204;9.910;2023-12-20T08:17:34;10.53;;;3.30;;
19877;SDS011;10101;52.204;9.910;2023-12-20T08:20:00;11.80;;;2.90;;
19877;SDS011;10101;52.204;9.910;2023-12-20T08:22:28;7.43;;;2.83;;
19877;SDS011;10101;52.204;9.910;2023-12-20T08:24:55;6.00;;;1.73;;
19877;SDS011;10101;52.204;9.910;2023-12-20T08:27:22;7.17;;;2.30;;
19877;SDS011;10101;52.204;9.910;2023-12-20T08:29:50;2.80;;;1.80;;
19877;SDS011;10101;52.204;9.910;2023-12-20T08:32:17;7.50;;;1.90;;
19877;SDS011;10101;52.204;9.910;2023-12-20T08:34:44;10.60;;;2.30;;
19877;SDS011;10101;52.204;9.910;2023-12-20T08:37:10;6.53;;;2.53;;
19877;SDS011;10101;52.204;9.910;2023-12-20T08:39:38;8.73;;;2.60;;
19877;SDS011;10101;52.204;9.910;2023-12-20T08:42:05;7.33;;;2.10;;
19877;SDS011;10101;52.204;9.910;2023-12-20T08:44:32;5.73;;;1.73;;
19877;SDS011;10101;52.204;9.910;2023-12-20T08:46:59;6.20;;;2.13;;
19877;SDS011;10101;52.204;9.910;2023-12-20T08:49:25;12.57;;;3.23;;
19877;SDS011;10101;52.204;9.910;2023-12-20T08:51:53;8.10;;;2.40;;
19877;SDS011;10101;52.204;9.910;2023-12-20T08:54:19;9.27;;;2.03;;
19877;SDS011;10101;52.204;9.910;2023-12-20T08:56:47;9.17;;;2.70;;
19877;SDS011;10101;52.204;9.910;2023-12-20T08:59:14;9.53;;;2.30;;
19877;SDS011;10101;52.204;9.910;2023-12-20T09:01:41;8.53;;;2.50;;
19877;SDS011;10101;52.204;9.910;2023-12-20T09:04:07;5.20;;;2.43;;
19877;SDS011;10101;52.204;9.910;2023-12-20T09:06:34;8.43;;;2.40;;
19877;SDS011;10101;52.204;9.910;2023-12-20T09:09:01;8.03;;;2.53;;
19877;SDS011;10101;52.204;9.910;2023-12-20T09:11:28;11.13;;;2.17;;
19877;SDS011;10101;52.204;9.910;2023-12-20T09:13:56;5.40;;;1.97;;
19877;SDS011;10101;52.204;9.910;2023-12-20T09:16:23;6.10;;;1.83;;
19877;SDS011;10101;52.204;9.910;2023-12-20T09:18:50;6.27;;;1.93;;
19877;SDS011;10101;52.204;9.910;2023-12-20T09:21:17;10.83;;;1.73;;
19877;SDS011;10101;52.204;9.910;2023-12-20T09:23:43;8.17;;;2.20;;
19877;SDS011;10101;52.204;9.910;2023-12-20T09:26:10;8.13;;;2.53;;
19877;SDS011;10101;52.204;9.910;2023-12-20T09:28:37;9.00;;;2.40;;
19877;SDS011;10101;52.204;9.910;2023-12-20T09:31:06;6.30;;;2.33;;
19877;SDS011;10101;52.204;9.910;2023-12-20T09:33:33;8.60;;;2.50;;
19877;SDS011;10101;52.204;9.910;2023-12-20T09:36:01;7.37;;;2.63;;
19877;SDS011;10101;52.204;9.910;2023-12-20T09:38:27;5.90;;;2.07;;
19877;SDS011;10101;52.204;9.910;2023-12-20T09:40:54;12.63;;;3.23;;
19877;SDS011;10101;52.204;9.910;2023-12-20T09:43:21;2.47;;;1.67;;
19877;SDS011;10101;52.204;9.910;2023-12-20T09:45:51;8.07;;;2.40;;
19877;SDS011;10101;52.204;9.910;2023-12-20T09:48:21;10.50;;;2.60;;
19877;SDS011;10101;52.204;9.910;2023-12-20T09:50:48;9.13;;;2.83;;
19877;SDS011;10101;52.204;9.910;2023-12-20T09:53:15;8.03;;;2.00;;
19877;SDS011;10101;52.204;9.910;2023-12-20T09:55:43;8.83;;;1.83;;
19877;SDS011;10101;52.204;9.910;2023-12-20T09:58:10;4.87;;;1.43;;
19877;SDS011;10101;52.204;9.910;2023-12-20T10:00:37;4.13;;;1.70;;
19877;SDS011;10101;52.204;9.910;2023-12-20T10:03:04;5.83;;;1.70;;
19877;SDS011;10101;52.204;9.910;2023-12-20T10:05:34;10.23;;;2.67;;
19877;SDS011;10101;52.204;9.910;2023-12-20T10:08:00;6.50;;;1.93;;
19877;SDS011;10101;52.204;9.910;2023-12-20T10:10:28;5.57;;;1.87;;
19877;SDS011;10101;52.204;9.910;2023-12-20T10:13:01;8.17;;;2.47;;
19877;SDS011;10101;52.204;9.910;2023-12-20T10:15:29;5.53;;;1.90;;
19877;SDS011;10101;52.204;9.910;2023-12-20T10:17:57;6.53;;;2.23;;
19877;SDS011;10101;52.204;9.910;2023-12-20T10:20:24;4.97;;;2.13;;
19877;SDS011;10101;52.204;9.910;2023-12-20T10:22:52;4.17;;;1.93;;
19877;SDS011;10101;52.204;9.910;2023-12-20T10:25:19;10.00;;;1.93;;
19877;SDS011;10101;52.204;9.910;2023-12-20T10:27:46;7.60;;;2.10;;
19877;SDS011;10101;52.204;9.910;2023-12-20T10:30:13;7.40;;;2.50;;
19877;SDS011;10101;52.204;9.910;2023-12-20T10:32:40;9.10;;;2.57;;
19877;SDS011;10101;52.204;9.910;2023-12-20T10:35:08;6.07;;;2.50;;
19877;SDS011;10101;52.204;9.910;2023-12-20T10:37:35;6.10;;;2.57;;
19877;SDS011;10101;52.204;9.910;2023-12-20T10:40:03;7.37;;;3.10;;
19877;SDS011;10101;52.204;9.910;2023-12-20T10:42:31;8.20;;;2.63;;
19877;SDS011;10101;52.204;9.910;2023-12-20T10:44:59;10.63;;;2.77;;
19877;SDS011;10101;52.204;9.910;2023-12-20T10:47:26;5.53;;;3.03;;
19877;SDS011;10101;52.204;9.910;2023-12-20T10:49:53;12.90;;;3.50;;
19877;SDS011;10101;52.204;9.910;2023-12-20T10:52:21;9.17;;;2.80;;
19877;SDS011;10101;52.204;9.910;2023-12-20T10:54:49;4.00;;;2.70;;
19877;SDS011;10101;52.204;9.910;2023-12-20T10:57:18;8.00;;;3.07;;
19877;SDS011;10101;52.204;9.910;2023-12-20T10:59:45;5.70;;;2.33;;
19877;SDS011;10101;52.204;9.910;2023-12-20T11:02:14;5.07;;;2.53;;
19877;SDS011;10101;52.204;9.910;2023-12-20T11:04:43;7.63;;;3.13;;
19877;SDS011;10101;52.204;9.910;2023-12-20T11:07:17;10.97;;;2.80;;
19877;SDS011;10101;52.204;9.910;2023-12-20T11:09:52;8.43;;;2.83;;
19877;SDS011;10101;52.204;9.910;2023-12-20T11:12:28;7.27;;;2.70;;
19877;SDS011;10101;52.204;9.910;2023-12-20T11:15:03;26.13;;;3.30;;
19877;SDS011;10101;52.204;9.910;2023-12-20T11:17:31;8.57;;;3.03;;
19877;SDS011;10101;52.204;9.910;2023-12-20T11:20:05;7.57;;;3.27;;
19877;SDS011;10101;52.204;9.910;2023-12-20T11:22:35;7.57;;;3.63;;
19877;SDS011;10101;52.204;9.910;2023-12-20T11:25:04;7.17;;;2.53;;
19877;SDS011;10101;52.204;9.910;2023-12-20T11:27:34;7.13;;;3.33;;
19877;SDS011;10101;52.204;9.910;2023-12-20T11:30:02;9.93;;;3.33;;
19877;SDS011;10101;52.204;9.910;2023-12-20T11:32:33;6.30;;;3.63;;
19877;SDS011;10101;52.204;9.910;2023-12-20T11:35:01;7.47;;;2.63;;
19877;SDS011;10101;52.204;9.910;2023-12-20T11:37:43;7.63;;;3.23;;
19877;SDS011;10101;52.204;9.910;2023-12-20T11:40:13;8.53;;;3.33;;
19877;SDS011;10101;52.204;9.910;2023-12-20T11:42:43;7.43;;;3.10;;
19877;SDS011;10101;52.204;9.910;2023-12-20T11:45:10;7.10;;;2.57;;
19877;SDS011;10101;52.204;9.910;2023-12-20T11:47:40;7.53;;;3.30;;
19877;SDS011;10101;52.204;9.910;2023-12-20T11:50:08;8.50;;;2.87;;
19877;SDS011;10101;52.204;9.910;2023-12-20T11:52:35;9.77;;;3.20;;
19877;SDS011;10101;52.204;9.910;2023-12-20T11:55:02;10.13;;;3.17;;
19877;SDS011;10101;52.204;9.910;2023-12-20T11:57:29;7.60;;;2.97;;
19877;SDS011;10101;52.204;9.910;2023-12-20T11:59:57;8.43;;;3.00;;
19877;SDS011;10101;52.204;9.910;2023-12-20T12:02:24;5.77;;;2.53;;
19877;SDS011;10101;52.204;9.910;2023-12-20T12:04:51;7.63;;;2.10;;
19877;SDS011;10101;52.204;9.910;2023-12-20T12:07:18;6.77;;;2.50;;
19877;SDS011;10101;52.204;9.910;2023-12-20T12:09:45;8.63;;;2.00;;
19877;SDS011;10101;52.204;9.910;2023-12-20T12:12:12;1.67;;;1.00;;
19877;SDS011;10101;52.204;9.910;2023-12-20T12:14:39;8.17;;;1.00;;
19877;SDS011;10101;52.204;9.910;2023-12-20T12:17:11;2.33;;;0.70;;
19877;SDS011;10101;52.204;9.910;2023-12-20T12:19:37;3.10;;;0.70;;
19877;SDS011;10101;52.204;9.910;2023-12-20T12:22:04;2.10;;;0.43;;
19877;SDS011;10101;52.204;9.910;2023-12-20T12:24:33;2.10;;;0.60;;
19877;SDS011;10101;52.204;9.910;2023-12-20T12:27:00;2.53;;;0.80;;
19877;SDS011;10101;52.204;9.910;2023-12-20T12:29:27;1.90;;;0.70;;
19877;SDS011;10101;52.204;9.910;2023-12-20T12:31:54;0.40;;;0.40;;
19877;SDS011;10101;52.204;9.910;2023-12-20T12:34:22;1.37;;;0.60;;
19877;SDS011;10101;52.204;9.910;2023-12-20T12:36:49;1.90;;;0.60;;
19877;SDS011;10101;52.204;9.910;2023-12-20T12:39:17;3.07;;;0.90;;
19877;SDS011;10101;52.204;9.910;2023-12-20T12:41:44;1.43;;;0.60;;
19877;SDS011;10101;52.204;9.910;2023-12-20T12:44:11;2.40;;;0.60;;
19877;SDS011;10101;52.204;9.910;2023-12-20T12:46:38;2.47;;;0.63;;
19877;SDS011;10101;52.204;9.910;2023-12-20T12:49:04;1.10;;;0.40;;
19877;SDS011;10101;52.204;9.910;2023-12-20T12:51:32;3.03;;;0.70;;
19877;SDS011;10101;52.204;9.910;2023-12-20T12:53:59;0.60;;;0.37;;
19877;SDS011;10101;52.204;9.910;2023-12-20T12:56:26;3.20;;;0.60;;
19877;SDS011;10101;52.204;9.910;2023-12-20T12:58:53;3.70;;;0.83;;
19877;SDS011;10101;52.204;9.910;2023-12-20T13:01:20;1.63;;;0.60;;
19877;SDS011;10101;52.204;9.910;2023-12-20T13:03:47;1.80;;;0.60;;
19877;SDS011;10101;52.204;9.910;2023-12-20T13:06:13;2.57;;;0.90;;
19877;SDS011;10101;52.204;9.910;2023-12-20T13:08:41;2.20;;;0.70;;
19877;SDS011;10101;52.204;9.910;2023-12-20T13:11:09;1.50;;;0.70;;
19877;SDS011;10101;52.204;9.910;2023-12-20T13:13:36;2.73;;;0.70;;
19877;SDS011;10101;52.204;9.910;2023-12-20T13:16:03;2.87;;;0.50;;
19877;SDS011;10101;52.204;9.910;2023-12-20T13:18:30;1.97;;;0.73;;
19877;SDS011;10101;52.204;9.910;2023-12-20T13:20:57;1.80;;;0.40;;
19877;SDS011;10101;52.204;9.910;2023-12-20T13:23:24;2.03;;;0.53;;
19877;SDS011;10101;52.204;9.910;2023-12-20T13:25:52;0.50;;;0.43;;
19877;SDS011;10101;52.204;9.910;2023-12-20T13:28:18;0.93;;;0.40;;
19877;SDS011;10101;52.204;9.910;2023-12-20T13:30:45;4.97;;;0.87;;
19877;SDS011;10101;52.204;9.910;2023-12-20T13:33:12;0.77;;;0.40;;
19877;SDS011;10101;52.204;9.910;2023-12-20T13:35:38;2.23;;;0.40;;
19877;SDS011;10101;52.204;9.910;2023-12-20T13:38:05;2.70;;;0.57;;
19877;SDS011;10101;52.204;9.910;2023-12-20T13:40:32;1.00;;;0.77;;
19877;SDS011;10101;52.204;9.910;2023-12-20T13:43:00;3.70;;;0.90;;
19877;SDS011;10101;52.204;9.910;2023-12-20T13:45:28;1.60;;;0.70;;
19877;SDS011;10101;52.204;9.910;2023-12-20T13:47:54;1.37;;;0.60;;
19877;SDS011;10101;52.204;9.910;2023-12-20T13:50:21;1.70;;;0.50;;
19877;SDS011;10101;52.204;9.910;2023-12-20T13:52:48;1.50;;;0.60;;
19877;SDS011;10101;52.204;9.910;2023-12-20T13:55:15;2.57;;;0.60;;
19877;SDS011;10101;52.204;9.910;2023-12-20T13:57:41;0.93;;;0.40;;
19877;SDS011;10101;52.204;9.910;2023-12-20T14:00:10;0.70;;;0.60;;
19877;SDS011;10101;52.204;9.910;2023-12-20T14:02:39;1.53;;;0.67;;
19877;SDS011;10101;52.204;9.910;2023-12-20T14:05:07;1.70;;;0.63;;
19877;SDS011;10101;52.204;9.910;2023-12-20T14:07:34;3.03;;;0.73;;
19877;SDS011;10101;52.204;9.910;2023-12-20T14:10:01;3.90;;;0.90;;
19877;SDS011;10101;52.204;9.910;2023-12-20T14:12:29;2.37;;;0.60;;
19877;SDS011;10101;52.204;9.910;2023-12-20T14:14:57;2.40;;;0.90;;
19877;SDS011;10101;52.204;9.910;2023-12-20T14:17:25;1.33;;;0.67;;
19877;SDS011;10101;52.204;9.910;2023-12-20T14:19:52;3.83;;;1.00;;
19877;SDS011;10101;52.204;9.910;2023-12-20T14:22:19;2.70;;;0.80;;
19877;SDS011;10101;52.204;9.910;2023-12-20T14:24:46;2.63;;;0.80;;
19877;SDS011;10101;52.204;9.910;2023-12-20T14:27:13;0.83;;;0.67;;
19877;SDS011;10101;52.204;9.910;2023-12-20T14:29:40;4.00;;;1.17;;
19877;SDS011;10101;52.204;9.910;2023-12-20T14:32:07;4.80;;;1.10;;
19877;SDS011;10101;52.204;9.910;2023-12-20T14:34:35;2.40;;;1.10;;
19877;SDS011;10101;52.204;9.910;2023-12-20T14:37:03;6.53;;;1.40;;
19877;SDS011;10101;52.204;9.910;2023-12-20T14:39:30;7.47;;;2.23;;
19877;SDS011;10101;52.204;9.910;2023-12-20T14:41:57;3.80;;;1.00;;
19877;SDS011;10101;52.204;9.910;2023-12-20T14:44:23;3.40;;;0.90;;
19877;SDS011;10101;52.204;9.910;2023-12-20T14:46:50;3.53;;;1.00;;